sensor_id;sensor_type;location;lat;lon;timestamp;P1;durP1;ratioP1;P2;durP2;ratioP2
43152;SDS011;28756;49.064;9.290;2024-03-17T00:00:23;4.80;;;3.20;;
43152;SDS011;28756;49.064;9.290;2024-03-17T00:02:49;3.85;;;3.17;;
43152;SDS011;28756;49.064;9.290;2024-03-17T00:05:15;4.90;;;3.33;;
43152;SDS011;28756;49.064;9.290;2024-03-17T00:07:43;4.95;;;3.50;;
43152;SDS011;28756;49.064;9.290;2024-03-17T00:10:09;4.53;;;3.70;;
43152;SDS011;28756;49.064;9.290;2024-03-17T00:12:35;4.78;;;3.70;;
43152;SDS011;28756;49.064;9.290;2024-03-17T00:15:02;4.40;;;3.60;;
43152;SDS011;28756;49.064;9.290;2024-03-17T00:17:32;7.65;;;4.25;;
43152;SDS011;28756;49.064;9.290;2024-03-17T00:19:59;5.35;;;4.15;;
43152;SDS011;28756;49.064;9.290;2024-03-17T00:22:34;4.50;;;3.50;;
43152;SDS011;28756;49.064;9.290;2024-03-17T00:25:04;4.40;;;3.72;;
43152;SDS011;28756;49.064;9.290;2024-03-17T00:27:34;5.78;;;3.92;;
43152;SDS011;28756;49.064;9.290;2024-03-17T00:30:05;4.68;;;3.90;;
43152;SDS011;28756;49.064;9.290;2024-03-17T00:32:37;5.07;;;3.10;;
43152;SDS011;28756;49.064;9.290;2024-03-17T00:35:04;3.58;;;2.95;;
43152;SDS011;28756;49.064;9.290;2024-03-17T00:37:31;4.72;;;3.70;;
43152;SDS011;28756;49.064;9.290;2024-03-17T00:39:57;3.90;;;3.50;;
43152;SDS011;28756;49.064;9.290;2024-03-17T00:42:27;3.90;;;3.28;;
43152;SDS011;28756;49.064;9.290;2024-03-17T00:44:54;3.42;;;3.13;;
43152;SDS011;28756;49.064;9.290;2024-03-17T00:47:21;3.95;;;3.05;;
43152;SDS011;28756;49.064;9.290;2024-03-17T00:49:47;3.95;;;3.08;;
43152;SDS011;28756;49.064;9.290;2024-03-17T00:52:15;3.75;;;2.90;;
43152;SDS011;28756;49.064;9.290;2024-03-17T00:54:41;4.10;;;2.97;;
43152;SDS011;28756;49.064;9.290;2024-03-17T00:57:07;3.38;;;2.72;;
43152;SDS011;28756;49.064;9.290;2024-03-17T00:59:33;4.38;;;3.40;;
43152;SDS011;28756;49.064;9.290;2024-03-17T01:01:58;4.15;;;3.17;;
43152;SDS011;28756;49.064;9.290;2024-03-17T01:04:24;3.78;;;2.83;;
43152;SDS011;28756;49.064;9.290;2024-03-17T01:06:50;3.45;;;2.72;;
43152;SDS011;28756;49.064;9.290;2024-03-17T01:09:16;3.22;;;2.72;;
43152;SDS011;28756;49.064;9.290;2024-03-17T01:11:42;4.63;;;3.05;;
43152;SDS011;28756;49.064;9.290;2024-03-17T01:14:08;4.07;;;3.08;;
43152;SDS011;28756;49.064;9.290;2024-03-17T01:16:34;4.47;;;3.25;;
43152;SDS011;28756;49.064;9.290;2024-03-17T01:19:00;5.18;;;3.60;;
43152;SDS011;28756;49.064;9.290;2024-03-17T01:21:25;3.53;;;3.13;;
43152;SDS011;28756;49.064;9.290;2024-03-17T01:23:51;4.47;;;3.40;;
43152;SDS011;28756;49.064;9.290;2024-03-17T01:26:18;4.15;;;2.78;;
43152;SDS011;28756;49.064;9.290;2024-03-17T01:28:43;3.95;;;3.50;;
43152;SDS011;28756;49.064;9.290;2024-03-17T01:31:12;3.83;;;3.15;;
43152;SDS011;28756;49.064;9.290;2024-03-17T01:33:38;4.47;;;3.58;;
43152;SDS011;28756;49.064;9.290;2024-03-17T01:36:05;4.35;;;3.85;;
43152;SDS011;28756;49.064;9.290;2024-03-17T01:38:31;4.18;;;3.33;;
43152;SDS011;28756;49.064;9.290;2024-03-17T01:40:58;6.45;;;3.28;;
43152;SDS011;28756;49.064;9.290;2024-03-17T01:43:24;4.80;;;3.20;;
43152;SDS011;28756;49.064;9.290;2024-03-17T01:45:51;5.30;;;3.55;;
43152;SDS011;28756;49.064;9.290;2024-03-17T01:48:17;3.38;;;2.60;;
43152;SDS011;28756;49.064;9.290;2024-03-17T01:50:44;2.70;;;2.50;;
43152;SDS011;28756;49.064;9.290;2024-03-17T01:53:13;4.28;;;2.90;;
43152;SDS011;28756;49.064;9.290;2024-03-17T01:55:39;3.10;;;2.60;;
43152;SDS011;28756;49.064;9.290;2024-03-17T01:58:08;2.63;;;2.40;;
43152;SDS011;28756;49.064;9.290;2024-03-17T02:00:36;3.78;;;2.40;;
43152;SDS011;28756;49.064;9.290;2024-03-17T02:03:04;5.78;;;3.17;;
43152;SDS011;28756;49.064;9.290;2024-03-17T02:05:37;5.00;;;3.60;;
43152;SDS011;28756;49.064;9.290;2024-03-17T02:08:04;4.05;;;3.15;;
43152;SDS011;28756;49.064;9.290;2024-03-17T02:10:32;4.07;;;3.63;;
43152;SDS011;28756;49.064;9.290;2024-03-17T02:12:58;3.80;;;3.13;;
43152;SDS011;28756;49.064;9.290;2024-03-17T02:15:26;4.65;;;3.63;;
43152;SDS011;28756;49.064;9.290;2024-03-17T02:17:51;4.80;;;3.53;;
43152;SDS011;28756;49.064;9.290;2024-03-17T02:20:17;4.10;;;3.33;;
43152;SDS011;28756;49.064;9.290;2024-03-17T02:22:43;4.32;;;3.03;;
43152;SDS011;28756;49.064;9.290;2024-03-17T02:25:09;3.03;;;2.63;;
43152;SDS011;28756;49.064;9.290;2024-03-17T02:27:35;3.15;;;2.75;;
43152;SDS011;28756;49.064;9.290;2024-03-17T02:30:04;3.35;;;2.65;;
43152;SDS011;28756;49.064;9.290;2024-03-17T02:32:34;2.63;;;2.42;;
43152;SDS011;28756;49.064;9.290;2024-03-17T02:35:00;3.70;;;2.60;;
43152;SDS011;28756;49.064;9.290;2024-03-17T02:37:27;2.75;;;2.45;;
43152;SDS011;28756;49.064;9.290;2024-03-17T02:39:52;3.53;;;2.35;;
43152;SDS011;28756;49.064;9.290;2024-03-17T02:42:18;3.10;;;2.50;;
43152;SDS011;28756;49.064;9.290;2024-03-17T02:44:44;3.08;;;2.75;;
43152;SDS011;28756;49.064;9.290;2024-03-17T02:47:10;4.93;;;2.50;;
43152;SDS011;28756;49.064;9.290;2024-03-17T02:49:39;4.20;;;2.35;;
43152;SDS011;28756;49.064;9.290;2024-03-17T02:52:08;4.78;;;2.90;;
43152;SDS011;28756;49.064;9.290;2024-03-17T02:54:36;3.10;;;2.60;;
43152;SDS011;28756;49.064;9.290;2024-03-17T02:57:04;3.05;;;2.38;;
43152;SDS011;28756;49.064;9.290;2024-03-17T02:59:31;2.95;;;2.40;;
43152;SDS011;28756;49.064;9.290;2024-03-17T03:01:58;2.47;;;2.17;;
43152;SDS011;28756;49.064;9.290;2024-03-17T03:04:25;2.22;;;1.90;;
43152;SDS011;28756;49.064;9.290;2024-03-17T03:06:51;3.17;;;2.47;;
43152;SDS011;28756;49.064;9.290;2024-03-17T03:09:20;3.50;;;2.65;;
43152;SDS011;28756;49.064;9.290;2024-03-17T03:11:50;2.10;;;1.90;;
43152;SDS011;28756;49.064;9.290;2024-03-17T03:14:17;2.30;;;1.88;;
43152;SDS011;28756;49.064;9.290;2024-03-17T03:16:44;3.63;;;2.40;;
43152;SDS011;28756;49.064;9.290;2024-03-17T03:19:09;2.58;;;1.98;;
43152;SDS011;28756;49.064;9.290;2024-03-17T03:21:35;2.80;;;2.50;;
43152;SDS011;28756;49.064;9.290;2024-03-17T03:24:01;2.55;;;2.17;;
43152;SDS011;28756;49.064;9.290;2024-03-17T03:26:27;3.22;;;1.90;;
43152;SDS011;28756;49.064;9.290;2024-03-17T03:28:53;2.50;;;2.10;;
43152;SDS011;28756;49.064;9.290;2024-03-17T03:31:20;2.65;;;2.40;;
43152;SDS011;28756;49.064;9.290;2024-03-17T03:33:46;2.47;;;2.20;;
43152;SDS011;28756;49.064;9.290;2024-03-17T03:36:13;2.35;;;1.95;;
43152;SDS011;28756;49.064;9.290;2024-03-17T03:38:41;2.83;;;2.42;;
43152;SDS011;28756;49.064;9.290;2024-03-17T03:41:08;2.30;;;2.10;;
43152;SDS011;28756;49.064;9.290;2024-03-17T03:43:34;2.30;;;2.08;;
43152;SDS011;28756;49.064;9.290;2024-03-17T03:46:01;3.85;;;2.05;;
43152;SDS011;28756;49.064;9.290;2024-03-17T03:48:28;1.85;;;1.58;;
43152;SDS011;28756;49.064;9.290;2024-03-17T03:50:54;1.83;;;1.58;;
43152;SDS011;28756;49.064;9.290;2024-03-17T03:53:20;2.88;;;2.00;;
43152;SDS011;28756;49.064;9.290;2024-03-17T03:55:45;2.17;;;1.70;;
43152;SDS011;28756;49.064;9.290;2024-03-17T03:58:11;2.20;;;1.77;;
43152;SDS011;28756;49.064;9.290;2024-03-17T04:00:38;2.25;;;2.05;;
43152;SDS011;28756;49.064;9.290;2024-03-17T04:03:04;2.38;;;1.85;;
43152;SDS011;28756;49.064;9.290;2024-03-17T04:05:30;2.42;;;2.03;;
43152;SDS011;28756;49.064;9.290;2024-03-17T04:07:56;3.15;;;1.73;;
43152;SDS011;28756;49.064;9.290;2024-03-17T04:10:23;2.22;;;1.90;;
43152;SDS011;28756;49.064;9.290;2024-03-17T04:12:49;2.80;;;1.80;;
43152;SDS011;28756;49.064;9.290;2024-03-17T04:15:16;2.08;;;1.40;;
43152;SDS011;28756;49.064;9.290;2024-03-17T04:17:42;3.38;;;1.85;;
43152;SDS011;28756;49.064;9.290;2024-03-17T04:20:08;2.03;;;1.80;;
43152;SDS011;28756;49.064;9.290;2024-03-17T04:22:38;3.00;;;2.10;;
43152;SDS011;28756;49.064;9.290;2024-03-17T04:25:06;2.25;;;1.83;;
43152;SDS011;28756;49.064;9.290;2024-03-17T04:27:32;2.95;;;2.10;;
43152;SDS011;28756;49.064;9.290;2024-03-17T04:29:59;6.47;;;2.20;;
43152;SDS011;28756;49.064;9.290;2024-03-17T04:32:25;3.38;;;1.95;;
43152;SDS011;28756;49.064;9.290;2024-03-17T04:34:52;1.98;;;1.73;;
43152;SDS011;28756;49.064;9.290;2024-03-17T04:37:17;3.25;;;1.80;;
43152;SDS011;28756;49.064;9.290;2024-03-17T04:39:44;2.58;;;2.28;;
43152;SDS011;28756;49.064;9.290;2024-03-17T04:42:12;2.22;;;2.00;;
43152;SDS011;28756;49.064;9.290;2024-03-17T04:44:39;3.28;;;1.90;;
43152;SDS011;28756;49.064;9.290;2024-03-17T04:47:06;2.45;;;1.90;;
43152;SDS011;28756;49.064;9.290;2024-03-17T04:49:42;3.88;;;1.90;;
43152;SDS011;28756;49.064;9.290;2024-03-17T04:52:09;2.33;;;2.13;;
43152;SDS011;28756;49.064;9.290;2024-03-17T04:54:36;3.08;;;2.20;;
43152;SDS011;28756;49.064;9.290;2024-03-17T04:57:02;2.33;;;1.73;;
43152;SDS011;28756;49.064;9.290;2024-03-17T04:59:29;3.33;;;2.22;;
43152;SDS011;28756;49.064;9.290;2024-03-17T05:01:54;2.08;;;1.67;;
43152;SDS011;28756;49.064;9.290;2024-03-17T05:04:20;3.40;;;1.75;;
43152;SDS011;28756;49.064;9.290;2024-03-17T05:06:46;3.20;;;2.65;;
43152;SDS011;28756;49.064;9.290;2024-03-17T05:09:18;3.47;;;1.83;;
43152;SDS011;28756;49.064;9.290;2024-03-17T05:11:45;3.78;;;1.92;;
43152;SDS011;28756;49.064;9.290;2024-03-17T05:14:12;2.92;;;1.92;;
43152;SDS011;28756;49.064;9.290;2024-03-17T05:16:38;2.03;;;1.80;;
43152;SDS011;28756;49.064;9.290;2024-03-17T05:19:07;3.08;;;1.90;;
43152;SDS011;28756;49.064;9.290;2024-03-17T05:21:34;3.20;;;1.80;;
43152;SDS011;28756;49.064;9.290;2024-03-17T05:24:03;2.47;;;1.88;;
43152;SDS011;28756;49.064;9.290;2024-03-17T05:26:29;2.00;;;1.83;;
43152;SDS011;28756;49.064;9.290;2024-03-17T05:28:56;3.35;;;2.05;;
43152;SDS011;28756;49.064;9.290;2024-03-17T05:31:22;1.70;;;1.60;;
43152;SDS011;28756;49.064;9.290;2024-03-17T05:33:48;2.78;;;1.73;;
43152;SDS011;28756;49.064;9.290;2024-03-17T05:36:14;2.25;;;1.50;;
43152;SDS011;28756;49.064;9.290;2024-03-17T05:38:40;2.40;;;1.73;;
43152;SDS011;28756;49.064;9.290;2024-03-17T05:41:06;2.92;;;1.80;;
43152;SDS011;28756;49.064;9.290;2024-03-17T05:43:35;2.28;;;1.60;;
43152;SDS011;28756;49.064;9.290;2024-03-17T05:46:03;3.10;;;1.70;;
43152;SDS011;28756;49.064;9.290;2024-03-17T05:48:34;2.70;;;1.98;;
43152;SDS011;28756;49.064;9.290;2024-03-17T05:51:04;2.10;;;1.90;;
43152;SDS011;28756;49.064;9.290;2024-03-17T05:53:31;2.30;;;1.80;;
43152;SDS011;28756;49.064;9.290;2024-03-17T05:56:03;2.47;;;2.28;;
43152;SDS011;28756;49.064;9.290;2024-03-17T05:58:29;2.85;;;1.80;;
43152;SDS011;28756;49.064;9.290;2024-03-17T06:00:55;2.97;;;2.03;;
43152;SDS011;28756;49.064;9.290;2024-03-17T06:03:23;2.53;;;2.33;;
43152;SDS011;28756;49.064;9.290;2024-03-17T06:05:48;5.85;;;2.25;;
43152;SDS011;28756;49.064;9.290;2024-03-17T06:08:14;2.30;;;2.05;;
43152;SDS011;28756;49.064;9.290;2024-03-17T06:10:44;3.50;;;1.77;;
43152;SDS011;28756;49.064;9.290;2024-03-17T06:13:13;2.17;;;1.98;;
43152;SDS011;28756;49.064;9.290;2024-03-17T06:15:43;3.67;;;2.13;;
43152;SDS011;28756;49.064;9.290;2024-03-17T06:18:11;3.53;;;2.10;;
43152;SDS011;28756;49.064;9.290;2024-03-17T06:20:39;4.47;;;2.50;;
43152;SDS011;28756;49.064;9.290;2024-03-17T06:23:07;4.13;;;2.20;;
43152;SDS011;28756;49.064;9.290;2024-03-17T06:25:43;3.15;;;2.42;;
43152;SDS011;28756;49.064;9.290;2024-03-17T06:28:12;3.95;;;3.05;;
43152;SDS011;28756;49.064;9.290;2024-03-17T06:30:45;5.18;;;3.17;;
43152;SDS011;28756;49.064;9.290;2024-03-17T06:33:19;3.10;;;2.70;;
43152;SDS011;28756;49.064;9.290;2024-03-17T06:35:46;4.28;;;3.10;;
43152;SDS011;28756;49.064;9.290;2024-03-17T06:38:12;3.10;;;2.60;;
43152;SDS011;28756;49.064;9.290;2024-03-17T06:40:40;5.15;;;2.80;;
43152;SDS011;28756;49.064;9.290;2024-03-17T06:43:06;2.83;;;2.55;;
43152;SDS011;28756;49.064;9.290;2024-03-17T06:45:32;4.25;;;2.53;;
43152;SDS011;28756;49.064;9.290;2024-03-17T06:47:59;4.30;;;2.80;;
43152;SDS011;28756;49.064;9.290;2024-03-17T06:50:25;3.25;;;2.60;;
43152;SDS011;28756;49.064;9.290;2024-03-17T06:52:51;5.15;;;3.00;;
43152;SDS011;28756;49.064;9.290;2024-03-17T06:55:17;3.20;;;2.45;;
43152;SDS011;28756;49.064;9.290;2024-03-17T06:57:46;3.35;;;2.20;;
43152;SDS011;28756;49.064;9.290;2024-03-17T07:00:12;2.97;;;2.13;;
43152;SDS011;28756;49.064;9.290;2024-03-17T07:02:42;3.70;;;2.50;;
43152;SDS011;28756;49.064;9.290;2024-03-17T07:05:12;4.13;;;2.70;;
43152;SDS011;28756;49.064;9.290;2024-03-17T07:07:43;3.97;;;2.40;;
43152;SDS011;28756;49.064;9.290;2024-03-17T07:10:09;3.13;;;2.40;;
43152;SDS011;28756;49.064;9.290;2024-03-17T07:12:37;3.13;;;2.28;;
43152;SDS011;28756;49.064;9.290;2024-03-17T07:15:06;3.83;;;2.40;;
43152;SDS011;28756;49.064;9.290;2024-03-17T07:17:33;4.35;;;2.95;;
43152;SDS011;28756;49.064;9.290;2024-03-17T07:19:59;4.60;;;2.90;;
43152;SDS011;28756;49.064;9.290;2024-03-17T07:22:26;3.20;;;2.60;;
43152;SDS011;28756;49.064;9.290;2024-03-17T07:24:53;4.22;;;3.03;;
43152;SDS011;28756;49.064;9.290;2024-03-17T07:27:37;3.15;;;2.83;;
43152;SDS011;28756;49.064;9.290;2024-03-17T07:30:03;4.43;;;2.65;;
43152;SDS011;28756;49.064;9.290;2024-03-17T07:32:31;3.00;;;2.70;;
43152;SDS011;28756;49.064;9.290;2024-03-17T07:34:57;3.55;;;2.92;;
43152;SDS011;28756;49.064;9.290;2024-03-17T07:37:23;4.57;;;3.35;;
43152;SDS011;28756;49.064;9.290;2024-03-17T07:39:48;4.03;;;3.25;;
43152;SDS011;28756;49.064;9.290;2024-03-17T07:42:14;4.85;;;3.35;;
43152;SDS011;28756;49.064;9.290;2024-03-17T07:44:43;5.32;;;3.40;;
43152;SDS011;28756;49.064;9.290;2024-03-17T07:47:09;6.10;;;3.50;;
43152;SDS011;28756;49.064;9.290;2024-03-17T07:49:35;4.85;;;3.22;;
43152;SDS011;28756;49.064;9.290;2024-03-17T07:52:01;5.28;;;3.97;;
43152;SDS011;28756;49.064;9.290;2024-03-17T07:54:27;3.85;;;3.42;;
43152;SDS011;28756;49.064;9.290;2024-03-17T07:56:53;5.35;;;3.45;;
43152;SDS011;28756;49.064;9.290;2024-03-17T07:59:21;5.18;;;3.55;;
43152;SDS011;28756;49.064;9.290;2024-03-17T08:01:48;4.20;;;3.20;;
43152;SDS011;28756;49.064;9.290;2024-03-17T08:07:16;3.95;;;3.38;;
43152;SDS011;28756;49.064;9.290;2024-03-17T08:09:41;4.88;;;3.35;;
43152;SDS011;28756;49.064;9.290;2024-03-17T08:12:07;2.90;;;2.63;;
43152;SDS011;28756;49.064;9.290;2024-03-17T08:14:33;4.88;;;3.33;;
43152;SDS011;28756;49.064;9.290;2024-03-17T08:16:59;4.47;;;3.30;;
43152;SDS011;28756;49.064;9.290;2024-03-17T08:19:25;4.40;;;3.25;;
43152;SDS011;28756;49.064;9.290;2024-03-17T08:21:50;4.75;;;3.50;;
43152;SDS011;28756;49.064;9.290;2024-03-17T08:24:16;7.00;;;4.18;;
43152;SDS011;28756;49.064;9.290;2024-03-17T08:26:42;5.00;;;3.60;;
43152;SDS011;28756;49.064;9.290;2024-03-17T08:29:10;5.72;;;3.45;;
43152;SDS011;28756;49.064;9.290;2024-03-17T08:31:36;4.03;;;3.60;;
43152;SDS011;28756;49.064;9.290;2024-03-17T08:34:03;4.88;;;3.75;;
43152;SDS011;28756;49.064;9.290;2024-03-17T08:36:28;4.88;;;3.83;;
43152;SDS011;28756;49.064;9.290;2024-03-17T08:38:54;4.53;;;3.60;;
43152;SDS011;28756;49.064;9.290;2024-03-17T08:41:20;5.82;;;3.50;;
43152;SDS011;28756;49.064;9.290;2024-03-17T08:43:46;5.78;;;3.95;;
43152;SDS011;28756;49.064;9.290;2024-03-17T08:46:12;4.00;;;3.28;;
43152;SDS011;28756;49.064;9.290;2024-03-17T08:48:39;5.28;;;3.60;;
43152;SDS011;28756;49.064;9.290;2024-03-17T08:51:09;4.97;;;3.65;;
43152;SDS011;28756;49.064;9.290;2024-03-17T08:53:41;5.45;;;3.55;;
43152;SDS011;28756;49.064;9.290;2024-03-17T08:56:14;7.57;;;4.38;;
43152;SDS011;28756;49.064;9.290;2024-03-17T09:10:09;4.05;;;3.60;;
43152;SDS011;28756;49.064;9.290;2024-03-17T09:12:38;4.65;;;3.90;;
43152;SDS011;28756;49.064;9.290;2024-03-17T09:15:05;4.82;;;3.63;;
43152;SDS011;28756;49.064;9.290;2024-03-17T09:17:33;5.90;;;4.10;;
43152;SDS011;28756;49.064;9.290;2024-03-17T09:19:59;6.88;;;4.10;;
43152;SDS011;28756;49.064;9.290;2024-03-17T09:22:24;4.65;;;4.00;;
43152;SDS011;28756;49.064;9.290;2024-03-17T09:24:50;6.05;;;4.40;;
43152;SDS011;28756;49.064;9.290;2024-03-17T09:27:16;6.30;;;4.45;;
43152;SDS011;28756;49.064;9.290;2024-03-17T09:29:45;4.68;;;3.83;;
43152;SDS011;28756;49.064;9.290;2024-03-17T09:32:12;5.05;;;3.83;;
43152;SDS011;28756;49.064;9.290;2024-03-17T09:34:42;6.60;;;4.00;;
43152;SDS011;28756;49.064;9.290;2024-03-17T09:37:13;4.55;;;3.83;;
43152;SDS011;28756;49.064;9.290;2024-03-17T09:39:41;5.35;;;4.05;;
43152;SDS011;28756;49.064;9.290;2024-03-17T09:42:16;4.30;;;3.90;;
43152;SDS011;28756;49.064;9.290;2024-03-17T09:44:45;4.85;;;4.35;;
43152;SDS011;28756;49.064;9.290;2024-03-17T09:47:15;4.68;;;3.70;;
43152;SDS011;28756;49.064;9.290;2024-03-17T09:49:47;5.15;;;4.25;;
43152;SDS011;28756;49.064;9.290;2024-03-17T09:52:19;5.72;;;3.75;;
43152;SDS011;28756;49.064;9.290;2024-03-17T09:55:00;4.53;;;3.88;;
43152;SDS011;28756;49.064;9.290;2024-03-17T09:57:34;5.50;;;4.20;;
43152;SDS011;28756;49.064;9.290;2024-03-17T10:00:04;4.53;;;4.10;;
43152;SDS011;28756;49.064;9.290;2024-03-17T10:02:47;3.92;;;3.58;;
43152;SDS011;28756;49.064;9.290;2024-03-17T10:05:20;5.65;;;3.58;;
43152;SDS011;28756;49.064;9.290;2024-03-17T10:07:48;4.93;;;3.72;;
43152;SDS011;28756;49.064;9.290;2024-03-17T10:10:15;4.43;;;4.03;;
43152;SDS011;28756;49.064;9.290;2024-03-17T10:12:41;5.93;;;3.83;;
43152;SDS011;28756;49.064;9.290;2024-03-17T10:15:08;5.25;;;3.95;;
43152;SDS011;28756;49.064;9.290;2024-03-17T10:17:37;5.30;;;4.20;;
43152;SDS011;28756;49.064;9.290;2024-03-17T10:22:57;4.75;;;3.72;;
43152;SDS011;28756;49.064;9.290;2024-03-17T10:25:34;5.35;;;3.70;;
43152;SDS011;28756;49.064;9.290;2024-03-17T10:28:10;4.88;;;3.33;;
43152;SDS011;28756;49.064;9.290;2024-03-17T10:30:37;5.28;;;3.83;;
43152;SDS011;28756;49.064;9.290;2024-03-17T10:33:05;4.50;;;3.83;;
43152;SDS011;28756;49.064;9.290;2024-03-17T10:35:35;5.10;;;3.75;;
43152;SDS011;28756;49.064;9.290;2024-03-17T10:38:04;4.55;;;2.95;;
43152;SDS011;28756;49.064;9.290;2024-03-17T10:40:31;3.30;;;3.00;;
43152;SDS011;28756;49.064;9.290;2024-03-17T10:43:01;4.55;;;3.25;;
43152;SDS011;28756;49.064;9.290;2024-03-17T10:45:28;4.35;;;3.10;;
43152;SDS011;28756;49.064;9.290;2024-03-17T10:48:01;4.30;;;3.25;;
43152;SDS011;28756;49.064;9.290;2024-03-17T10:50:31;2.80;;;2.60;;
43152;SDS011;28756;49.064;9.290;2024-03-17T10:53:06;3.60;;;3.08;;
43152;SDS011;28756;49.064;9.290;2024-03-17T10:55:42;4.85;;;3.30;;
43152;SDS011;28756;49.064;9.290;2024-03-17T10:58:27;4.30;;;3.08;;
43152;SDS011;28756;49.064;9.290;2024-03-17T11:01:03;2.95;;;2.60;;
43152;SDS011;28756;49.064;9.290;2024-03-17T11:03:32;2.75;;;2.45;;
43152;SDS011;28756;49.064;9.290;2024-03-17T11:06:00;5.18;;;2.90;;
43152;SDS011;28756;49.064;9.290;2024-03-17T11:08:31;5.57;;;3.38;;
43152;SDS011;28756;49.064;9.290;2024-03-17T11:10:58;5.85;;;3.35;;
43152;SDS011;28756;49.064;9.290;2024-03-17T11:13:26;3.45;;;2.95;;
43152;SDS011;28756;49.064;9.290;2024-03-17T11:15:53;4.65;;;3.10;;
43152;SDS011;28756;49.064;9.290;2024-03-17T11:21:03;4.78;;;3.45;;
43152;SDS011;28756;49.064;9.290;2024-03-17T11:23:57;4.35;;;3.00;;
43152;SDS011;28756;49.064;9.290;2024-03-17T11:26:26;4.65;;;2.88;;
43152;SDS011;28756;49.064;9.290;2024-03-17T11:29:00;4.50;;;3.33;;
43152;SDS011;28756;49.064;9.290;2024-03-17T11:34:03;3.65;;;2.75;;
43152;SDS011;28756;49.064;9.290;2024-03-17T11:36:33;3.10;;;2.70;;
43152;SDS011;28756;49.064;9.290;2024-03-17T11:39:05;3.65;;;3.15;;
43152;SDS011;28756;49.064;9.290;2024-03-17T11:41:52;2.88;;;2.55;;
43152;SDS011;28756;49.064;9.290;2024-03-17T11:47:04;3.35;;;3.03;;
43152;SDS011;28756;49.064;9.290;2024-03-17T11:49:35;4.68;;;2.80;;
43152;SDS011;28756;49.064;9.290;2024-03-17T11:52:04;3.92;;;2.95;;
43152;SDS011;28756;49.064;9.290;2024-03-17T11:54:44;3.15;;;2.70;;
43152;SDS011;28756;49.064;9.290;2024-03-17T11:57:17;3.33;;;2.50;;
43152;SDS011;28756;49.064;9.290;2024-03-17T11:59:52;2.67;;;2.28;;
43152;SDS011;28756;49.064;9.290;2024-03-17T12:02:21;5.05;;;2.38;;
43152;SDS011;28756;49.064;9.290;2024-03-17T12:04:57;3.20;;;2.60;;
43152;SDS011;28756;49.064;9.290;2024-03-17T12:07:26;4.05;;;3.08;;
43152;SDS011;28756;49.064;9.290;2024-03-17T12:09:55;2.97;;;2.53;;
43152;SDS011;28756;49.064;9.290;2024-03-17T12:12:23;5.20;;;2.60;;
43152;SDS011;28756;49.064;9.290;2024-03-17T12:15:00;4.47;;;3.30;;
43152;SDS011;28756;49.064;9.290;2024-03-17T12:17:27;3.05;;;2.72;;
43152;SDS011;28756;49.064;9.290;2024-03-17T12:19:56;3.67;;;3.10;;
43152;SDS011;28756;49.064;9.290;2024-03-17T12:22:24;2.47;;;2.25;;
43152;SDS011;28756;49.064;9.290;2024-03-17T12:24:52;2.67;;;2.22;;
43152;SDS011;28756;49.064;9.290;2024-03-17T12:27:21;2.55;;;2.03;;
43152;SDS011;28756;49.064;9.290;2024-03-17T12:29:48;3.00;;;2.30;;
43152;SDS011;28756;49.064;9.290;2024-03-17T12:32:17;4.13;;;3.10;;
43152;SDS011;28756;49.064;9.290;2024-03-17T12:34:47;3.47;;;2.42;;
43152;SDS011;28756;49.064;9.290;2024-03-17T12:37:17;2.80;;;2.47;;
43152;SDS011;28756;49.064;9.290;2024-03-17T12:39:58;4.47;;;2.22;;
43152;SDS011;28756;49.064;9.290;2024-03-17T12:42:28;4.68;;;2.67;;
43152;SDS011;28756;49.064;9.290;2024-03-17T12:44:57;2.90;;;2.30;;
43152;SDS011;28756;49.064;9.290;2024-03-17T12:47:29;3.22;;;2.38;;
43152;SDS011;28756;49.064;9.290;2024-03-17T12:49:57;2.40;;;1.95;;
43152;SDS011;28756;49.064;9.290;2024-03-17T12:52:31;3.00;;;1.98;;
43152;SDS011;28756;49.064;9.290;2024-03-17T12:55:05;2.13;;;1.73;;
43152;SDS011;28756;49.064;9.290;2024-03-17T13:01:05;2.25;;;1.90;;
43152;SDS011;28756;49.064;9.290;2024-03-17T13:03:32;2.05;;;1.80;;
43152;SDS011;28756;49.064;9.290;2024-03-17T13:06:00;2.47;;;1.92;;
43152;SDS011;28756;49.064;9.290;2024-03-17T13:08:34;2.63;;;1.70;;
43152;SDS011;28756;49.064;9.290;2024-03-17T13:11:00;2.97;;;2.22;;
43152;SDS011;28756;49.064;9.290;2024-03-17T13:13:29;1.90;;;1.52;;
43152;SDS011;28756;49.064;9.290;2024-03-17T13:15:55;3.42;;;2.20;;
43152;SDS011;28756;49.064;9.290;2024-03-17T13:18:21;3.55;;;1.80;;
43152;SDS011;28756;49.064;9.290;2024-03-17T13:20:48;2.70;;;1.90;;
43152;SDS011;28756;49.064;9.290;2024-03-17T13:23:19;2.97;;;1.80;;
43152;SDS011;28756;49.064;9.290;2024-03-17T13:25:49;2.55;;;2.03;;
43152;SDS011;28756;49.064;9.290;2024-03-17T13:28:15;4.43;;;2.00;;
43152;SDS011;28756;49.064;9.290;2024-03-17T13:30:41;2.72;;;1.98;;
43152;SDS011;28756;49.064;9.290;2024-03-17T13:33:08;2.50;;;1.85;;
43152;SDS011;28756;49.064;9.290;2024-03-17T13:35:36;1.95;;;1.60;;
43152;SDS011;28756;49.064;9.290;2024-03-17T13:38:04;2.97;;;2.20;;
43152;SDS011;28756;49.064;9.290;2024-03-17T13:40:38;2.50;;;1.55;;
43152;SDS011;28756;49.064;9.290;2024-03-17T13:43:16;2.55;;;1.50;;
43152;SDS011;28756;49.064;9.290;2024-03-17T13:45:42;2.65;;;1.35;;
43152;SDS011;28756;49.064;9.290;2024-03-17T13:48:08;4.75;;;1.63;;
43152;SDS011;28756;49.064;9.290;2024-03-17T13:50:37;2.00;;;1.60;;
43152;SDS011;28756;49.064;9.290;2024-03-17T13:53:07;2.90;;;1.60;;
43152;SDS011;28756;49.064;9.290;2024-03-17T13:55:33;3.63;;;2.05;;
43152;SDS011;28756;49.064;9.290;2024-03-17T13:58:00;2.55;;;1.65;;
43152;SDS011;28756;49.064;9.290;2024-03-17T14:00:27;2.45;;;1.58;;
43152;SDS011;28756;49.064;9.290;2024-03-17T14:02:55;2.40;;;1.90;;
43152;SDS011;28756;49.064;9.290;2024-03-17T14:05:22;1.92;;;1.48;;
43152;SDS011;28756;49.064;9.290;2024-03-17T14:07:51;2.67;;;1.50;;
43152;SDS011;28756;49.064;9.290;2024-03-17T14:10:19;1.90;;;1.50;;
43152;SDS011;28756;49.064;9.290;2024-03-17T14:12:47;3.13;;;1.58;;
43152;SDS011;28756;49.064;9.290;2024-03-17T14:15:14;2.40;;;1.48;;
43152;SDS011;28756;49.064;9.290;2024-03-17T14:17:41;2.70;;;1.92;;
43152;SDS011;28756;49.064;9.290;2024-03-17T14:20:14;2.75;;;1.50;;
43152;SDS011;28756;49.064;9.290;2024-03-17T14:22:43;2.35;;;1.63;;
43152;SDS011;28756;49.064;9.290;2024-03-17T14:25:17;2.15;;;1.50;;
43152;SDS011;28756;49.064;9.290;2024-03-17T14:27:43;2.88;;;2.03;;
43152;SDS011;28756;49.064;9.290;2024-03-17T14:30:10;3.97;;;1.60;;
43152;SDS011;28756;49.064;9.290;2024-03-17T14:32:43;1.63;;;1.50;;
43152;SDS011;28756;49.064;9.290;2024-03-17T14:35:13;2.75;;;1.80;;
43152;SDS011;28756;49.064;9.290;2024-03-17T14:37:43;2.03;;;1.63;;
43152;SDS011;28756;49.064;9.290;2024-03-17T14:40:13;2.47;;;1.63;;
43152;SDS011;28756;49.064;9.290;2024-03-17T14:42:46;2.13;;;1.40;;
43152;SDS011;28756;49.064;9.290;2024-03-17T14:45:13;2.40;;;1.80;;
43152;SDS011;28756;49.064;9.290;2024-03-17T14:47:39;2.45;;;1.80;;
43152;SDS011;28756;49.064;9.290;2024-03-17T14:50:05;2.80;;;1.60;;
43152;SDS011;28756;49.064;9.290;2024-03-17T14:52:33;2.08;;;1.33;;
43152;SDS011;28756;49.064;9.290;2024-03-17T14:55:10;3.30;;;1.85;;
43152;SDS011;28756;49.064;9.290;2024-03-17T14:57:39;4.03;;;1.73;;
43152;SDS011;28756;49.064;9.290;2024-03-17T15:00:06;3.05;;;1.60;;
43152;SDS011;28756;49.064;9.290;2024-03-17T15:02:44;2.50;;;1.50;;
43152;SDS011;28756;49.064;9.290;2024-03-17T15:05:15;1.40;;;1.13;;
43152;SDS011;28756;49.064;9.290;2024-03-17T15:07:47;2.47;;;1.25;;
43152;SDS011;28756;49.064;9.290;2024-03-17T15:10:15;1.40;;;1.05;;
43152;SDS011;28756;49.064;9.290;2024-03-17T15:12:45;1.30;;;1.20;;
43152;SDS011;28756;49.064;9.290;2024-03-17T15:15:13;3.35;;;1.50;;
43152;SDS011;28756;49.064;9.290;2024-03-17T15:17:39;2.55;;;1.40;;
43152;SDS011;28756;49.064;9.290;2024-03-17T15:20:05;2.78;;;1.42;;
43152;SDS011;28756;49.064;9.290;2024-03-17T15:22:41;1.60;;;1.23;;